Time;durP1;ratioP1;P1;durP2;ratioP2;P2;SDS_P1;SDS_P2;PMS_P1;PMS_P2;Temp;Humidity;BMP_temperature;BMP_pressure;BME280_temperature;BME280_humidity;BME280_pressure;Samples;Min_cycle;Max_cycle;Signal;HPM_P1;HPM_P2
2023/03/04 00:01:32;;;;;;;78.35;25.90;;;1.10;99.90;;;;;;4983920;28;20038;-66
2023/03/04 00:03:58;;;;;;;79.03;26.85;;;1.10;99.90;;;;;;4988827;28;20036;-65
2023/03/04 00:06:24;;;;;;;73.50;25.98;;;1.00;99.90;;;;;;4982196;28;20038;-66
2023/03/04 00:08:49;;;;;;;90.28;28.40;;;1.00;99.90;;;;;;4987050;28;20061;-66
2023/03/04 00:11:15;;;;;;;83.60;29.80;;;1.00;99.90;;;;;;4985303;28;20119;-66
2023/03/04 00:13:41;;;;;;;78.38;28.98;;;1.00;99.90;;;;;;4995049;28;20041;-66
2023/03/04 00:16:06;;;;;;;85.82;31.25;;;1.00;99.90;;;;;;4994085;28;20041;-65
2023/03/04 00:18:32;;;;;;;85.32;29.10;;;1.10;99.90;;;;;;4991335;28;20073;-66
2023/03/04 00:20:57;;;;;;;95.43;30.35;;;1.10;99.90;;;;;;4989200;28;20034;-66
2023/03/04 00:23:23;;;;;;;87.03;29.90;;;1.10;99.90;;;;;;4967836;28;20073;-66
2023/03/04 00:25:49;;;;;;;83.35;27.42;;;1.10;99.90;;;;;;4989553;28;20034;-67
2023/03/04 00:28:15;;;;;;;83.50;27.23;;;1.10;99.90;;;;;;5005329;28;20537;-65
2023/03/04 00:30:40;;;;;;;80.53;28.00;;;1.20;99.90;;;;;;4989374;28;20626;-66
2023/03/04 00:33:06;;;;;;;79.00;27.13;;;1.20;99.90;;;;;;5001324;28;20031;-66
2023/03/04 00:35:31;;;;;;;80.25;28.63;;;1.10;99.90;;;;;;4991087;28;20403;-65
2023/03/04 00:37:57;;;;;;;84.25;29.02;;;1.10;99.90;;;;;;4991429;28;20499;-65
2023/03/04 00:40:23;;;;;;;80.35;28.85;;;1.10;99.90;;;;;;4987082;28;20117;-66
2023/03/04 00:42:48;;;;;;;77.88;28.23;;;1.10;99.90;;;;;;4986718;28;20030;-65
2023/03/04 00:45:14;;;;;;;77.60;27.02;;;1.10;99.90;;;;;;4980908;28;20044;-66
2023/03/04 00:47:39;;;;;;;78.90;25.38;;;1.10;99.90;;;;;;4983168;28;20034;-64
2023/03/04 00:50:06;;;;;;;90.75;29.98;;;1.10;99.90;;;;;;4984023;28;20030;-66
2023/03/04 00:52:31;;;;;;;96.25;31.60;;;1.10;99.90;;;;;;4987930;28;20045;-64
2023/03/04 00:54:57;;;;;;;94.65;33.28;;;1.10;99.90;;;;;;4986344;28;20113;-65
2023/03/04 00:57:22;;;;;;;96.65;31.17;;;1.10;99.90;;;;;;4989548;28;20041;-66
2023/03/04 00:59:48;;;;;;;90.78;31.27;;;1.10;99.90;;;;;;4986750;28;20892;-64
2023/03/04 01:02:14;;;;;;;93.80;31.60;;;1.10;99.90;;;;;;4990028;28;20042;-65
2023/03/04 01:04:40;;;;;;;94.20;31.00;;;1.10;99.90;;;;;;4989242;28;20046;-65
2023/03/04 01:07:06;;;;;;;97.85;30.60;;;1.10;99.90;;;;;;4985648;28;20118;-64
2023/03/04 01:09:32;;;;;;;105.82;33.20;;;1.10;99.90;;;;;;4986692;28;20122;-65
2023/03/04 01:11:57;;;;;;;95.93;34.00;;;1.10;99.90;;;;;;4987561;28;20105;-66
2023/03/04 01:14:23;;;;;;;113.97;36.50;;;1.10;99.90;;;;;;4984394;28;20041;-66
2023/03/04 01:16:49;;;;;;;90.05;32.80;;;1.10;99.90;;;;;;4984973;28;20034;-65
2023/03/04 01:19:15;;;;;;;98.90;32.58;;;1.10;99.90;;;;;;4987300;28;20038;-66
2023/03/04 01:21:41;;;;;;;105.65;33.75;;;1.10;99.90;;;;;;4987053;28;20038;-65
2023/03/04 01:24:06;;;;;;;104.15;32.90;;;1.10;99.90;;;;;;4972138;28;20100;-66
2023/03/04 01:26:32;;;;;;;103.38;35.22;;;1.10;99.90;;;;;;4979478;28;20030;-67
2023/03/04 01:28:58;;;;;;;98.65;34.72;;;1.10;99.90;;;;;;4988101;28;20046;-66
2023/03/04 01:31:23;;;;;;;102.63;36.55;;;1.20;99.90;;;;;;4988122;28;20421;-67
2023/03/04 01:33:49;;;;;;;102.65;34.42;;;1.20;99.90;;;;;;4985064;28;20030;-67
2023/03/04 01:36:14;;;;;;;98.30;33.58;;;1.20;99.90;;;;;;4982594;28;20088;-66
2023/03/04 01:38:40;;;;;;;94.07;35.92;;;1.20;99.90;;;;;;4985746;28;20026;-66
2023/03/04 01:41:06;;;;;;;106.05;36.45;;;1.20;99.90;;;;;;4990733;28;20043;-66
2023/03/04 01:43:34;;;;;;;101.60;34.58;;;1.20;99.90;;;;;;4987197;28;20031;-66
2023/03/04 01:46:00;;;;;;;103.75;35.47;;;1.20;99.90;;;;;;4981095;28;20097;-65
2023/03/04 01:48:44;;;;;;;109.50;37.53;;;1.20;99.90;;;;;;4988254;28;20152;-67
2023/03/04 01:51:15;;;;;;;113.07;38.08;;;1.20;99.90;;;;;;4988938;28;20113;-66
2023/03/04 01:53:41;;;;;;;108.60;36.42;;;1.30;99.90;;;;;;4986136;28;20083;-65
2023/03/04 01:56:35;;;;;;;107.20;36.50;;;1.30;99.90;;;;;;4983109;28;20018;-66
2023/03/04 01:59:10;;;;;;;110.57;37.13;;;1.30;99.90;;;;;;4980595;28;20090;-66
2023/03/04 02:01:38;;;;;;;105.47;36.55;;;1.30;99.90;;;;;;4987801;28;20483;-66
2023/03/04 02:04:04;;;;;;;115.97;35.00;;;1.30;99.90;;;;;;4987495;28;20022;-65
2023/03/04 02:06:30;;;;;;;97.05;32.00;;;1.20;99.90;;;;;;4985063;28;20076;-66
2023/03/04 02:08:56;;;;;;;100.50;34.85;;;1.20;99.90;;;;;;4986952;28;20667;-66
2023/03/04 02:11:22;;;;;;;113.03;36.63;;;1.20;99.90;;;;;;4986240;28;20052;-66
2023/03/04 02:13:47;;;;;;;111.93;34.20;;;1.20;99.90;;;;;;4988105;28;20079;-67
2023/03/04 02:16:13;;;;;;;97.55;33.55;;;1.20;99.90;;;;;;4980054;28;20384;-64
2023/03/04 02:18:38;;;;;;;108.65;36.20;;;1.30;99.90;;;;;;4987615;28;20030;-66
2023/03/04 02:21:18;;;;;;;96.45;35.15;;;1.40;99.90;;;;;;4997343;28;20034;-66
2023/03/04 02:24:04;;;;;;;96.60;32.78;;;1.30;99.90;;;;;;4988234;28;20027;-66
2023/03/04 02:26:30;;;;;;;97.20;34.15;;;1.30;99.90;;;;;;4987317;28;20107;-66
2023/03/04 02:28:58;;;;;;;116.95;35.92;;;1.30;99.90;;;;;;4988719;28;20084;-66
2023/03/04 02:31:30;;;;;;;97.10;33.88;;;1.30;99.90;;;;;;4986852;28;20423;-66
2023/03/04 02:33:58;;;;;;;105.60;33.30;;;1.30;99.90;;;;;;4988198;28;20018;-67
2023/03/04 02:36:24;;;;;;;90.68;31.83;;;1.40;99.90;;;;;;4986775;28;20048;-65
2023/03/04 02:38:52;;;;;;;91.38;32.63;;;1.40;99.90;;;;;;4987710;28;20026;-66
2023/03/04 02:41:25;;;;;;;94.13;33.08;;;1.40;99.90;;;;;;4987553;28;20035;-66
2023/03/04 02:43:53;;;;;;;97.55;33.47;;;1.50;99.90;;;;;;4980473;28;20034;-66
2023/03/04 02:46:19;;;;;;;106.85;35.70;;;1.60;99.90;;;;;;4985248;28;20506;-65
2023/03/04 02:48:45;;;;;;;103.05;35.92;;;1.60;99.90;;;;;;4982215;28;20429;-66
2023/03/04 02:51:10;;;;;;;107.50;34.88;;;1.60;99.90;;;;;;4987419;28;20105;-66
2023/03/04 02:53:36;;;;;;;109.57;36.58;;;1.50;99.90;;;;;;4982882;28;20041;-65
2023/03/04 02:56:02;;;;;;;105.38;34.60;;;1.50;99.90;;;;;;4983113;28;20027;-66
2023/03/04 02:58:27;;;;;;;107.78;34.97;;;1.50;99.90;;;;;;5021733;28;20056;-64
2023/03/04 03:00:53;;;;;;;94.78;33.38;;;1.50;99.90;;;;;;4985469;28;20406;-65
2023/03/04 03:03:19;;;;;;;92.95;34.10;;;1.50;99.90;;;;;;4989401;28;20774;-67
2023/03/04 03:05:44;;;;;;;102.70;35.10;;;1.50;99.90;;;;;;4992928;28;20434;-65
2023/03/04 03:08:10;;;;;;;101.30;33.05;;;1.50;99.90;;;;;;4986027;28;20062;-66
2023/03/04 03:10:36;;;;;;;97.32;34.97;;;1.50;99.90;;;;;;4986427;28;20022;-66
2023/03/04 03:13:01;;;;;;;100.47;34.78;;;1.50;99.90;;;;;;4982794;28;20106;-66
2023/03/04 03:15:27;;;;;;;105.72;36.10;;;1.50;99.90;;;;;;4986385;28;20037;-67
2023/03/04 03:17:52;;;;;;;95.70;33.35;;;1.50;99.90;;;;;;4981775;28;20041;-66
2023/03/04 03:20:18;;;;;;;105.82;35.28;;;1.50;99.90;;;;;;4984277;28;20042;-67
2023/03/04 03:22:44;;;;;;;104.28;34.45;;;1.50;99.90;;;;;;4980702;28;20036;-66
2023/03/04 03:25:11;;;;;;;105.93;35.67;;;1.50;99.90;;;;;;4966522;28;20072;-67
2023/03/04 03:27:37;;;;;;;98.60;35.42;;;1.50;99.90;;;;;;4982849;28;20383;-66
2023/03/04 03:30:04;;;;;;;98.70;34.20;;;1.50;99.90;;;;;;4983624;28;20022;-67
2023/03/04 03:32:30;;;;;;;100.53;34.15;;;1.50;99.90;;;;;;4983578;28;20056;-67
2023/03/04 03:34:55;;;;;;;93.55;32.92;;;1.50;99.90;;;;;;4988509;28;20793;-65
2023/03/04 03:37:21;;;;;;;90.90;33.75;;;1.50;99.90;;;;;;4988467;28;20407;-64
2023/03/04 03:39:46;;;;;;;117.22;37.10;;;1.40;99.90;;;;;;4989082;28;20113;-67
2023/03/04 03:42:12;;;;;;;104.00;36.35;;;1.50;99.90;;;;;;4986790;28;20038;-65
2023/03/04 03:44:38;;;;;;;93.63;33.17;;;1.50;99.90;;;;;;4988790;28;20588;-67
2023/03/04 03:47:03;;;;;;;98.90;33.88;;;1.50;99.90;;;;;;4986520;28;20079;-65
2023/03/04 03:49:29;;;;;;;102.95;32.88;;;1.50;99.90;;;;;;4988019;28;20034;-66
2023/03/04 03:51:54;;;;;;;84.03;31.88;;;1.60;99.90;;;;;;4988740;28;20034;-65
2023/03/04 03:54:20;;;;;;;90.22;30.10;;;1.60;99.90;;;;;;4988828;28;20108;-66
2023/03/04 03:56:46;;;;;;;98.90;34.05;;;1.60;99.90;;;;;;4984898;28;20095;-66
2023/03/04 03:59:11;;;;;;;104.68;36.20;;;1.60;99.90;;;;;;4989425;28;20037;-65
2023/03/04 04:01:37;;;;;;;108.50;34.47;;;1.60;99.90;;;;;;4988447;28;20488;-66
2023/03/04 04:04:02;;;;;;;98.47;34.63;;;1.70;99.90;;;;;;4988113;28;20034;-66
2023/03/04 04:06:28;;;;;;;95.28;32.40;;;1.60;99.90;;;;;;4986483;28;20510;-66
2023/03/04 04:08:54;;;;;;;93.78;34.05;;;1.60;99.90;;;;;;4987850;28;20033;-66
2023/03/04 04:11:19;;;;;;;95.25;33.05;;;1.60;99.90;;;;;;4986324;28;20035;-65
2023/03/04 04:13:45;;;;;;;97.00;29.45;;;1.70;99.90;;;;;;4988712;28;20099;-66
2023/03/04 04:16:10;;;;;;;77.07;26.88;;;1.70;99.90;;;;;;4988574;28;20034;-66
2023/03/04 04:18:37;;;;;;;66.53;25.63;;;1.80;99.90;;;;;;4989492;28;20043;-66
2023/03/04 04:21:03;;;;;;;70.60;21.95;;;1.90;99.90;;;;;;4989822;28;20101;-67
2023/03/04 04:23:29;;;;;;;61.13;23.20;;;1.90;99.90;;;;;;4988971;28;20042;-66
2023/03/04 04:25:56;;;;;;;75.13;25.02;;;2.00;99.90;;;;;;4971830;28;20038;-66
2023/03/04 04:28:22;;;;;;;78.95;27.65;;;2.00;99.90;;;;;;4990391;28;20507;-66
2023/03/04 04:30:47;;;;;;;88.88;30.42;;;2.00;99.90;;;;;;4990138;28;20458;-65
2023/03/04 04:33:13;;;;;;;100.80;32.80;;;2.00;99.90;;;;;;4986801;28;20471;-65
2023/03/04 04:35:39;;;;;;;92.28;31.95;;;2.00;99.90;;;;;;4981574;28;20034;-66
2023/03/04 04:38:06;;;;;;;94.38;29.35;;;2.00;99.90;;;;;;4981882;28;20034;-67
2023/03/04 04:40:32;;;;;;;106.45;36.08;;;2.00;99.90;;;;;;4980934;28;20026;-64
2023/03/04 04:42:57;;;;;;;88.78;28.45;;;2.00;99.90;;;;;;4980121;28;20060;-64
2023/03/04 04:45:26;;;;;;;68.97;20.52;;;2.00;99.90;;;;;;4982085;28;20035;-66
2023/03/04 04:47:56;;;;;;;58.30;19.90;;;2.00;99.90;;;;;;4980484;28;20046;-66
2023/03/04 04:50:23;;;;;;;63.35;22.80;;;2.00;99.90;;;;;;4986557;28;20027;-66
2023/03/04 04:52:49;;;;;;;53.47;19.52;;;2.10;99.90;;;;;;4978824;28;20052;-65
2023/03/04 04:55:14;;;;;;;53.72;19.05;;;2.20;99.90;;;;;;4988938;28;20561;-66
2023/03/04 04:57:40;;;;;;;60.13;18.50;;;2.20;99.90;;;;;;4984324;28;20076;-66
2023/03/04 05:00:07;;;;;;;45.40;17.02;;;2.30;99.90;;;;;;4985653;28;20030;-65
2023/03/04 05:02:35;;;;;;;51.10;17.48;;;2.30;99.90;;;;;;4993138;28;20035;-67
2023/03/04 05:05:05;;;;;;;64.32;16.40;;;2.30;99.90;;;;;;4987739;28;20077;-65
2023/03/04 05:07:32;;;;;;;42.15;14.65;;;2.40;99.90;;;;;;4984819;28;20076;-66
2023/03/04 05:09:58;;;;;;;48.40;15.10;;;2.40;99.90;;;;;;4985255;28;20475;-67
2023/03/04 05:12:23;;;;;;;46.13;16.00;;;2.50;99.90;;;;;;4985687;28;20033;-65
2023/03/04 05:14:49;;;;;;;50.13;16.83;;;2.60;99.90;;;;;;4987633;28;20026;-67
2023/03/04 05:17:14;;;;;;;57.35;16.63;;;2.60;99.90;;;;;;4985651;28;20084;-65
2023/03/04 05:19:40;;;;;;;46.17;14.63;;;2.70;99.90;;;;;;4984769;28;20037;-67
2023/03/04 05:22:06;;;;;;;40.80;13.32;;;2.70;99.90;;;;;;4985891;28;20380;-67
2023/03/04 05:24:32;;;;;;;44.83;11.93;;;2.70;99.90;;;;;;4986803;28;20399;-65
2023/03/04 05:26:57;;;;;;;50.78;13.25;;;2.70;99.90;;;;;;4964051;28;20065;-64
2023/03/04 05:29:23;;;;;;;46.55;12.45;;;2.70;99.90;;;;;;4986218;28;20035;-65
2023/03/04 05:31:49;;;;;;;33.72;11.95;;;2.70;99.90;;;;;;4986734;28;20030;-65
2023/03/04 05:34:15;;;;;;;40.47;13.35;;;2.70;99.90;;;;;;4984219;28;20170;-66
2023/03/04 05:36:40;;;;;;;33.95;12.50;;;2.80;99.90;;;;;;4983450;28;20030;-65
2023/03/04 05:39:06;;;;;;;30.80;11.90;;;2.80;99.90;;;;;;4986642;28;20041;-66
2023/03/04 05:41:31;;;;;;;32.15;12.05;;;2.80;99.90;;;;;;4983970;28;20567;-65
2023/03/04 05:43:57;;;;;;;36.47;11.70;;;2.80;99.90;;;;;;4988645;28;20026;-67
2023/03/04 05:46:24;;;;;;;28.38;11.25;;;2.80;99.90;;;;;;4985846;28;20506;-66
2023/03/04 05:48:51;;;;;;;40.92;12.10;;;2.90;99.90;;;;;;4982314;28;20391;-64
2023/03/04 05:51:17;;;;;;;36.45;13.23;;;2.90;99.90;;;;;;4984090;28;20018;-66
2023/03/04 05:53:43;;;;;;;38.67;12.13;;;2.90;99.90;;;;;;4986540;28;20561;-65
2023/03/04 05:56:10;;;;;;;42.80;11.80;;;2.90;99.90;;;;;;4985286;28;20030;-66
2023/03/04 05:58:36;;;;;;;35.00;13.23;;;2.90;99.90;;;;;;4986337;28;20039;-67
2023/03/04 06:01:02;;;;;;;40.15;12.43;;;2.90;99.90;;;;;;4990848;28;20022;-66
2023/03/04 06:03:28;;;;;;;39.67;13.65;;;2.90;99.90;;;;;;4988663;28;20035;-65
2023/03/04 06:05:54;;;;;;;46.70;13.85;;;2.90;99.90;;;;;;4985501;28;20091;-65
2023/03/04 06:08:19;;;;;;;43.35;13.65;;;3.00;99.90;;;;;;4986282;28;20491;-67
2023/03/04 06:10:45;;;;;;;42.30;15.70;;;3.00;99.90;;;;;;5050285;23;20033;-65
2023/03/04 06:13:11;;;;;;;28.90;12.18;;;3.00;99.90;;;;;;5048952;28;20024;-65
2023/03/04 06:15:38;;;;;;;33.85;12.05;;;3.00;99.90;;;;;;5046559;28;20478;-65
2023/03/04 06:18:05;;;;;;;40.63;11.75;;;3.00;99.90;;;;;;5049344;28;20491;-65
2023/03/04 06:20:31;;;;;;;33.67;9.43;;;3.00;99.90;;;;;;5048565;28;20025;-65
2023/03/04 06:22:57;;;;;;;31.00;8.88;;;3.00;99.90;;;;;;5048418;28;20032;-64
2023/03/04 06:25:22;;;;;;;21.25;7.20;;;3.10;99.90;;;;;;5047773;28;20107;-65
2023/03/04 06:27:48;;;;;;;32.90;9.82;;;3.20;99.90;;;;;;5030280;28;20046;-65
2023/03/04 06:30:14;;;;;;;21.90;8.23;;;3.20;99.90;;;;;;5048197;28;20521;-65
2023/03/04 06:32:43;;;;;;;28.35;8.75;;;3.20;99.90;;;;;;5050118;28;20083;-65
2023/03/04 06:35:09;;;;;;;23.05;8.82;;;3.20;99.90;;;;;;5048703;28;20021;-65
2023/03/04 06:37:35;;;;;;;23.42;7.70;;;3.30;99.90;;;;;;5049534;28;20033;-65
2023/03/04 06:40:00;;;;;;;23.13;6.68;;;3.30;99.90;;;;;;5050105;28;20021;-64
2023/03/04 06:42:26;;;;;;;19.25;6.68;;;3.30;99.90;;;;;;5049555;28;20028;-64
2023/03/04 06:44:51;;;;;;;21.55;6.38;;;3.30;99.90;;;;;;5050488;28;20032;-64
2023/03/04 06:47:17;;;;;;;25.92;7.28;;;3.30;99.90;;;;;;5043118;28;20094;-65
2023/03/04 06:49:43;;;;;;;21.20;7.13;;;3.30;99.90;;;;;;5043403;28;20071;-64
2023/03/04 06:52:10;;;;;;;30.95;8.65;;;3.30;99.90;;;;;;5046131;28;20162;-64
2023/03/04 06:54:36;;;;;;;27.83;6.95;;;3.30;99.90;;;;;;5047330;28;20021;-64
2023/03/04 06:57:02;;;;;;;22.52;7.72;;;3.40;99.90;;;;;;5041847;28;20055;-63
2023/03/04 06:59:27;;;;;;;25.48;9.70;;;3.40;99.90;;;;;;5045170;28;20095;-63
2023/03/04 07:01:53;;;;;;;18.33;7.82;;;3.50;99.90;;;;;;5043762;28;20032;-63
2023/03/04 07:04:19;;;;;;;20.00;7.40;;;3.60;99.90;;;;;;5041978;28;20075;-63
2023/03/04 07:06:44;;;;;;;21.63;7.32;;;3.50;99.90;;;;;;5046242;28;20033;-62
2023/03/04 07:09:10;;;;;;;22.20;6.22;;;3.60;99.90;;;;;;5041958;28;20521;-65
2023/03/04 07:11:36;;;;;;;23.48;5.88;;;3.60;99.90;;;;;;5038704;28;20032;-64
2023/03/04 07:14:01;;;;;;;20.67;5.05;;;3.70;99.90;;;;;;5039735;28;20063;-63
2023/03/04 07:16:27;;;;;;;22.10;5.65;;;3.70;99.90;;;;;;5047415;28;20482;-64
2023/03/04 07:18:52;;;;;;;12.50;5.25;;;3.70;99.90;;;;;;5037285;28;20031;-63
2023/03/04 07:21:18;;;;;;;15.80;4.18;;;3.70;99.90;;;;;;5039976;28;20055;-63
2023/03/04 07:23:44;;;;;;;18.20;3.72;;;3.70;99.90;;;;;;5039250;28;20310;-64
2023/03/04 07:26:10;;;;;;;15.32;3.75;;;3.80;99.90;;;;;;5019628;28;20036;-64
2023/03/04 07:28:36;;;;;;;11.15;4.65;;;3.70;99.90;;;;;;5035602;28;20029;-64
2023/03/04 07:31:19;;;;;;;13.85;3.72;;;3.70;99.90;;;;;;5038386;28;20108;-64
2023/03/04 07:33:45;;;;;;;20.05;4.05;;;3.70;99.90;;;;;;5039796;28;20036;-64
2023/03/04 07:36:10;;;;;;;18.00;3.97;;;3.80;99.90;;;;;;5042973;28;20418;-64
2023/03/04 07:38:36;;;;;;;18.02;4.53;;;3.80;99.90;;;;;;5043922;28;20112;-63
2023/03/04 07:41:01;;;;;;;8.77;3.70;;;3.80;99.90;;;;;;5047112;28;20075;-64
2023/03/04 07:43:27;;;;;;;13.27;3.42;;;3.90;99.90;;;;;;5044567;28;20036;-64
2023/03/04 07:46:01;;;;;;;12.88;3.58;;;3.90;99.90;;;;;;5042740;28;20040;-65
2023/03/04 07:48:27;;;;;;;16.38;2.92;;;4.00;99.90;;;;;;5039244;28;20036;-64
2023/03/04 07:51:23;;;;;;;13.60;3.33;;;4.00;99.90;;;;;;5039197;28;20033;-64
2023/03/04 07:53:51;;;;;;;11.60;3.42;;;4.00;99.90;;;;;;5028588;28;20040;-63
2023/03/04 07:56:20;;;;;;;9.23;3.38;;;4.00;99.90;;;;;;5037079;28;20510;-62
2023/03/04 07:58:46;;;;;;;14.65;3.50;;;4.10;99.90;;;;;;5045086;28;20041;-65
2023/03/04 08:01:14;;;;;;;9.60;3.22;;;4.10;99.90;;;;;;5048897;28;20055;-64
2023/03/04 08:03:40;;;;;;;13.75;4.13;;;4.20;99.90;;;;;;5040817;28;20056;-64
2023/03/04 08:06:08;;;;;;;10.90;3.45;;;4.20;99.90;;;;;;5039841;28;20040;-63
2023/03/04 08:08:34;;;;;;;6.25;3.33;;;4.20;99.90;;;;;;5042070;28;20048;-64
2023/03/04 08:11:03;;;;;;;8.27;3.40;;;4.30;99.90;;;;;;5045830;28;20435;-65
2023/03/04 08:13:29;;;;;;;16.98;4.07;;;4.30;99.90;;;;;;5046282;28;20033;-63
2023/03/04 08:15:55;;;;;;;14.68;4.40;;;4.40;99.90;;;;;;5046276;28;20083;-64
2023/03/04 08:18:21;;;;;;;14.90;4.65;;;4.40;99.90;;;;;;5049958;28;20529;-64
2023/03/04 08:20:46;;;;;;;11.98;3.20;;;4.40;99.90;;;;;;5051538;28;20029;-63
2023/03/04 08:23:12;;;;;;;9.52;3.42;;;4.50;99.90;;;;;;5046373;28;20061;-63
2023/03/04 08:25:39;;;;;;;10.27;4.22;;;4.60;99.90;;;;;;5050280;28;20056;-64
2023/03/04 08:28:06;;;;;;;14.13;5.15;;;4.50;99.90;;;;;;5020008;28;20663;-64
2023/03/04 08:30:32;;;;;;;19.92;4.97;;;4.60;99.90;;;;;;5047980;28;20048;-64
2023/03/04 08:32:57;;;;;;;11.65;4.25;;;4.60;99.90;;;;;;5048916;28;20474;-64
2023/03/04 08:35:23;;;;;;;18.67;4.82;;;4.60;99.90;;;;;;5046809;28;20025;-63
2023/03/04 08:37:48;;;;;;;17.38;4.57;;;4.70;99.90;;;;;;5049344;28;20495;-62
2023/03/04 08:40:14;;;;;;;10.95;4.88;;;4.80;99.90;;;;;;5051344;28;20044;-63
2023/03/04 08:42:40;;;;;;;21.08;6.30;;;4.70;99.90;;;;;;5063222;28;20037;-64
2023/03/04 08:45:07;;;;;;;19.48;5.47;;;4.70;99.90;;;;;;5047904;28;20037;-64
2023/03/04 08:47:33;;;;;;;20.85;6.28;;;4.80;99.90;;;;;;5049685;28;20037;-63
2023/03/04 08:49:59;;;;;;;20.73;6.65;;;4.80;99.90;;;;;;5068118;28;20479;-64
2023/03/04 08:52:24;;;;;;;25.40;6.53;;;4.90;99.90;;;;;;5050866;28;20044;-64
2023/03/04 08:54:50;;;;;;;27.15;6.75;;;4.90;99.90;;;;;;5050412;28;20033;-65
2023/03/04 08:57:15;;;;;;;21.38;5.38;;;4.90;99.90;;;;;;5048496;28;20041;-64
2023/03/04 08:59:41;;;;;;;15.95;6.07;;;5.00;99.90;;;;;;5053312;28;20482;-65
2023/03/04 09:02:06;;;;;;;18.00;6.68;;;5.00;99.90;;;;;;5049264;28;20029;-64
2023/03/04 09:04:32;;;;;;;20.58;7.53;;;5.10;99.90;;;;;;5054804;28;20370;-63
2023/03/04 09:06:58;;;;;;;28.60;7.82;;;5.20;99.90;;;;;;5046431;28;20040;-63
2023/03/04 09:09:23;;;;;;;18.48;6.75;;;5.30;99.90;;;;;;5066890;28;20044;-64
2023/03/04 09:11:49;;;;;;;29.30;7.95;;;5.10;99.90;;;;;;5046717;28;20040;-64
2023/03/04 09:14:15;;;;;;;28.83;7.55;;;5.20;99.90;;;;;;5052753;28;20103;-65
2023/03/04 09:16:40;;;;;;;26.42;9.00;;;5.30;99.90;;;;;;5052699;28;20108;-64
2023/03/04 09:19:06;;;;;;;21.67;8.13;;;5.20;99.90;;;;;;5050939;28;20025;-65
2023/03/04 09:21:32;;;;;;;20.83;8.10;;;5.30;99.90;;;;;;5055709;28;20405;-64
2023/03/04 09:23:57;;;;;;;25.02;8.02;;;5.20;99.90;;;;;;5050674;28;20025;-64
2023/03/04 09:26:25;;;;;;;31.58;8.20;;;5.20;99.90;;;;;;5051063;28;20033;-64
2023/03/04 09:28:52;;;;;;;19.67;7.22;;;5.30;99.90;;;;;;5031692;28;20087;-64
2023/03/04 09:31:18;;;;;;;17.85;7.20;;;5.20;99.90;;;;;;5047129;28;20051;-64
2023/03/04 09:33:44;;;;;;;18.30;7.32;;;5.20;99.90;;;;;;5050956;28;20037;-63
2023/03/04 09:36:11;;;;;;;20.10;7.47;;;5.20;99.90;;;;;;5052313;28;20467;-64
2023/03/04 09:38:38;;;;;;;20.77;7.50;;;5.40;99.90;;;;;;5052141;28;20021;-64
2023/03/04 09:41:07;;;;;;;23.00;7.45;;;5.60;99.90;;;;;;5054890;28;20061;-63
2023/03/04 09:43:33;;;;;;;18.42;6.53;;;5.70;99.90;;;;;;5049124;28;20048;-64
2023/03/04 09:46:02;;;;;;;20.88;6.93;;;5.70;99.90;;;;;;5050193;28;20672;-64
2023/03/04 09:48:40;;;;;;;23.55;7.43;;;5.80;99.90;;;;;;5051853;28;20029;-64
2023/03/04 09:51:40;;;;;;;17.67;6.30;;;5.90;99.90;;;;;;5046076;28;20109;-63
2023/03/04 09:54:08;;;;;;;21.60;6.45;;;5.90;99.90;;;;;;5049421;28;20557;-64
2023/03/04 09:56:38;;;;;;;20.17;5.65;;;6.60;99.90;;;;;;5052122;28;20421;-63
2023/03/04 09:59:31;;;;;;;18.63;5.10;;;7.20;99.90;;;;;;5050288;28;20458;-65
2023/03/04 10:01:59;;;;;;;13.02;5.45;;;8.00;99.90;;;;;;5050860;28;20041;-63
2023/03/04 10:04:39;;;;;;;14.73;4.43;;;8.40;99.90;;;;;;5049459;28;20041;-63
2023/03/04 10:07:14;;;;;;;9.07;4.22;;;8.80;99.90;;;;;;5049469;28;20032;-64
2023/03/04 10:09:57;;;;;;;15.15;5.35;;;9.00;99.90;;;;;;5053750;28;20044;-65
2023/03/04 10:12:29;;;;;;;16.20;5.85;;;9.50;99.90;;;;;;5044713;28;20021;-65
2023/03/04 10:15:02;;;;;;;9.05;4.45;;;9.50;99.90;;;;;;5049614;28;20437;-65
2023/03/04 10:17:38;;;;;;;28.10;9.32;;;9.20;99.90;;;;;;5051677;28;20051;-63
2023/03/04 10:20:19;;;;;;;12.60;4.93;;;8.80;99.90;;;;;;5049260;28;20025;-64
2023/03/04 10:22:50;;;;;;;18.88;4.65;;;8.60;99.90;;;;;;5050548;28;20033;-64
2023/03/04 10:25:28;;;;;;;12.23;6.22;;;8.20;99.90;;;;;;5051204;28;20421;-64
2023/03/04 10:28:08;;;;;;;8.85;4.97;;;8.20;99.90;;;;;;5031144;28;20122;-64
2023/03/04 10:30:52;;;;;;;25.70;8.30;;;8.20;99.90;;;;;;5051061;28;20021;-63
2023/03/04 10:33:25;;;;;;;13.30;6.28;;;8.10;99.90;;;;;;5048017;28;20041;-64
2023/03/04 10:36:24;;;;;;;23.50;6.30;;;8.00;99.90;;;;;;5043708;28;20048;-64
2023/03/04 10:39:01;;;;;;;20.25;6.38;;;8.10;99.90;;;;;;5044313;28;20038;-64
2023/03/04 10:41:29;;;;;;;16.10;6.53;;;8.40;99.90;;;;;;5046653;28;20086;-64
2023/03/04 10:44:03;;;;;;;15.27;6.00;;;8.70;99.90;;;;;;5050479;28;20146;-64
2023/03/04 10:46:30;;;;;;;21.80;8.50;;;8.60;99.90;;;;;;5048795;28;20502;-64
2023/03/04 10:48:56;;;;;;;27.45;10.88;;;8.20;99.90;;;;;;5048377;28;20091;-64
2023/03/04 10:51:27;;;;;;;14.27;6.63;;;7.80;99.90;;;;;;5047321;28;20071;-65
2023/03/04 10:54:08;;;;;;;15.98;6.85;;;7.60;99.90;;;;;;5048481;28;20390;-64
2023/03/04 10:56:44;;;;;;;13.20;5.70;;;7.50;99.90;;;;;;5047851;28;20028;-64
2023/03/04 10:59:34;;;;;;;11.57;6.75;;;7.60;99.90;;;;;;5049201;28;20409;-63
2023/03/04 11:02:09;;;;;;;15.70;7.65;;;7.70;99.90;;;;;;5051640;28;20025;-63
2023/03/04 11:04:35;;;;;;;15.60;8.60;;;7.60;99.90;;;;;;5048913;28;20056;-64
2023/03/04 11:07:00;;;;;;;17.17;9.52;;;8.00;99.90;;;;;;5045249;28;20436;-63
2023/03/04 11:09:29;;;;;;;18.88;10.55;;;7.60;99.90;;;;;;5049758;28;20032;-63
2023/03/04 11:11:59;;;;;;;26.05;11.07;;;7.50;99.90;;;;;;5047300;28;20029;-62
2023/03/04 11:14:36;;;;;;;25.25;11.95;;;7.40;99.90;;;;;;5050064;28;20121;-65
2023/03/04 11:17:17;;;;;;;30.08;13.68;;;7.40;99.90;;;;;;5043710;28;20063;-64
2023/03/04 11:19:47;;;;;;;30.13;12.27;;;7.70;99.90;;;;;;5043219;28;20804;-62
2023/03/04 11:22:16;;;;;;;19.70;10.07;;;8.00;99.90;;;;;;5046214;28;20025;-64
2023/03/04 11:24:42;;;;;;;15.52;9.23;;;8.10;99.90;;;;;;5044282;28;20087;-65
2023/03/04 11:27:19;;;;;;;19.50;9.40;;;8.30;99.90;;;;;;5022613;28;20451;-64
2023/03/04 11:29:54;;;;;;;21.95;9.45;;;8.50;99.90;;;;;;5045514;28;20040;-64
2023/03/04 11:32:21;;;;;;;15.25;8.00;;;8.70;99.90;;;;;;5046829;28;20100;-64
2023/03/04 11:35:17;;;;;;;14.68;7.72;;;8.70;99.90;;;;;;5047161;28;20028;-63
2023/03/04 11:38:05;;;;;;;18.42;7.22;;;8.80;99.90;;;;;;5045133;28;20170;-64
2023/03/04 11:40:48;;;;;;;10.05;6.05;;;8.60;99.90;;;;;;5036920;28;20483;-63
2023/03/04 11:43:28;;;;;;;11.80;6.63;;;8.50;99.90;;;;;;5047376;28;20032;-64
2023/03/04 11:46:24;;;;;;;15.45;6.70;;;8.50;99.90;;;;;;5049016;28;20021;-63
2023/03/04 11:49:07;;;;;;;11.68;5.50;;;8.60;99.90;;;;;;5044905;28;20030;-63
2023/03/04 11:52:09;;;;;;;9.10;4.97;;;8.30;99.90;;;;;;5049923;28;20390;-64
2023/03/04 11:55:06;;;;;;;13.90;6.22;;;7.80;99.90;;;;;;5051532;28;20052;-64
2023/03/04 11:57:50;;;;;;;11.15;5.38;;;7.60;99.90;;;;;;5049545;28;20025;-64
2023/03/04 12:00:34;;;;;;;17.05;6.20;;;7.50;99.90;;;;;;5046431;28;20025;-64
2023/03/04 12:03:09;;;;;;;11.98;6.47;;;7.50;99.90;;;;;;5049463;28;20537;-64
2023/03/04 12:05:40;;;;;;;12.55;5.97;;;7.70;99.90;;;;;;5051369;28;20056;-63
2023/03/04 12:08:27;;;;;;;11.23;5.32;;;7.60;99.90;;;;;;5053696;28;20021;-64
2023/03/04 12:11:01;;;;;;;12.38;6.78;;;7.40;99.90;;;;;;5066177;23;20387;-65
2023/03/04 12:13:47;;;;;;;11.05;6.05;;;7.40;99.90;;;;;;5042938;28;20041;-65
2023/03/04 12:16:24;;;;;;;13.85;6.68;;;7.40;99.90;;;;;;5051900;28;20029;-65
2023/03/04 12:19:10;;;;;;;11.60;5.65;;;7.40;99.90;;;;;;5049121;28;20029;-66
2023/03/04 12:22:05;;;;;;;10.35;5.15;;;7.40;99.90;;;;;;5045556;28;20086;-65
2023/03/04 12:24:39;;;;;;;12.07;6.38;;;7.30;99.90;;;;;;5045726;28;20372;-66
2023/03/04 12:27:28;;;;;;;11.25;5.00;;;7.30;99.90;;;;;;5032952;28;20642;-67
2023/03/04 12:30:35;;;;;;;11.43;5.65;;;7.20;99.90;;;;;;5049832;28;20068;-67
2023/03/04 12:33:27;;;;;;;8.77;5.25;;;7.30;99.90;;;;;;5035616;28;20390;-65
2023/03/04 12:36:11;;;;;;;10.70;5.68;;;7.30;99.90;;;;;;5044401;28;20037;-66
2023/03/04 12:39:01;;;;;;;9.63;6.10;;;7.50;99.90;;;;;;5048965;28;20389;-67
2023/03/04 12:42:10;;;;;;;12.50;6.30;;;7.50;99.90;;;;;;5047890;28;20025;-66
2023/03/04 12:44:46;;;;;;;12.20;6.82;;;7.40;99.90;;;;;;5042067;28;20490;-66
2023/03/04 12:47:51;;;;;;;18.02;6.72;;;7.30;99.90;;;;;;5045310;28;20112;-66
2023/03/04 12:50:40;;;;;;;13.07;6.43;;;7.10;99.90;;;;;;5042046;28;20063;-67
2023/03/04 12:53:16;;;;;;;12.13;5.50;;;7.00;99.90;;;;;;5051784;28;20028;-65